Алыкель

Карта отелей и гостиниц, располагающихся рядом с аэропортом Алыкель :

Алыкель
Норильск
Красноярский край 69° 18' 39.6612" N, 87° 19' 55.0812" E
Код аэродрома ИКАО
UOOO
Код аэродрома RU
УООО
Координаты
N69.31102° E087.33197°
Превышение над уровнем моря
181
Основная полоса
01/19
Курс магнитный
014/194
Длина основной ВПП
3435
Ширина основной ВПП
45
Покрытие основной ВПП
Твёрдое
Освещение ВПП
Постоянное
Тип: 
Аэродром
Принадлежность: 
ГА
Статус: 
Действующий
Сайт: 
http://airport-norilsk.ru/
E-mail аэродрома: 
airport@airport-norilsk.ru
Страна: 
Россия
Регион: 
Красноярский край
Город: 
Норильск
Дополнительная информация: 
Эксплуатант: ООО «Аэропорт Норильск». Совместного базирования. Приравнен к условиям "Международного"(пересечение воздушных магистралей: транссибирской и трансатлантической). Грузонапряженность ВПП до 280 тонн. PCN 47/R/A/X/T. Военный индекс: XOOO / ЬООО. Расположен на Севере Красноярского края, на юге Таймырского полуострова в 52 км от промышленного и индустриального центра г. Норильск с его градообразующим стратегически важным предприятием ПАО «ГМК «Норильский Никель».
Схемы аэропортов: 
Погода: 

Авиационная погода в аэропорту Алыкель

Регион: 
Погода METAR: 
UOOO 290530Z 18009MPS 5000 -SN BLSN NSC M19/M22 Q1016 R19/39//38 NOSIG RMK QFE746/0995
Время наблюдения
2022-01-29T05:30:00Z
Температура C
-19.0
Точка росы
-22.0
Направление ветра
180
Скорость ветра (узлы)
17
Метео видимость
3.11
Облачность
CLR
Нижняя граница облачности (футы)
Явления погоды
-SN BLSN
Условия полета
MVFR
Аэропорт подробнее: 
CLR — нет облаков ниже 3000 м
-SN – слабый снег, BLSN – метель низовая или общая;


Найти трансфер

С помощью этой формы Вы можете найти трансфер из аэропорта Алыкель в город, аэропорт или вокзал:

Погода в аэропортах:

Авиационная погода в Челябинске

Регион: 
Погода METAR: 
USCC 290530Z 32001MPS 4300 -SN BR BKN009 M16/M18 Q1018 R27/490245 NOSIG RMK QFE744
Время наблюдения
2022-01-29T05:30:00Z
Температура C
-16.0
Точка росы
-18.0
Направление ветра
320
Скорость ветра (узлы)
2
Метео видимость
2.67
Облачность
BKN
Нижняя граница облачности (футы)
900
Явления погоды
-SN BR
Условия полета
IFR
Аэропорт подробнее: 
BKN – значительная (рассеянная, разорванная) облачность;
-SN – слабый снег; BR – дымка (видимость от 1 до 9 км);

Авиационная погода в Воронеже

Регион: 
Погода METAR: 
UUOO 290530Z 13002MPS 3400 BR OVC003 M04/M04 Q1004 R12/450536 TEMPO 1000 BR RMK QBB090 QFE739
Время наблюдения
2022-01-29T05:30:00Z
Температура C
-4.0
Точка росы
-4.0
Направление ветра
130
Скорость ветра (узлы)
4
Метео видимость
2.11
Облачность
OVC
Нижняя граница облачности (футы)
300
Явления погоды
BR
Условия полета
LIFR
Аэропорт подробнее: 
OVC – сплошная облачность;
BR – дымка (видимость от 1 до 9 км);

Авиационная погода в Нижнем Новгороде

Регион: 
Погода METAR: 
UWGG 290530Z 14003MPS 2100 R18L/1900D -SN BKN020 M07/M08 Q1007 R18L/490134 NOSIG
Время наблюдения
2022-01-29T05:30:00Z
Температура C
-7.0
Точка росы
-8.0
Направление ветра
140
Скорость ветра (узлы)
6
Метео видимость
1.3
Облачность
BKN
Нижняя граница облачности (футы)
2000
Явления погоды
-SN
Условия полета
IFR
Аэропорт подробнее: 
BKN – значительная (рассеянная, разорванная) облачность;
-SN – слабый снег;

Авиационная погода в Киркенесе

Регион: 
Погода METAR: 
ENKR 290520Z AUTO 15005KT 1100 R05/P2000N R23/P2000N -SN ///027/// M09/M10 Q0990 RMK WIND 731FT 11003KT
Время наблюдения
2022-01-29T05:20:00Z
Температура C
-9.0
Точка росы
-10.0
Направление ветра
150
Скорость ветра (узлы)
5
Метео видимость
0.68
Облачность
Нижняя граница облачности (футы)
Явления погоды
-SN
Условия полета
-SN – слабый снег;